createdAt,value
2023-02-12T00:00:56.131Z,36.37
2023-02-12T00:03:25.434Z,39.87
2023-02-12T00:05:53.750Z,34.13
2023-02-12T00:08:21.944Z,38.67
2023-02-12T00:10:49.880Z,39.70
2023-02-12T00:13:18.353Z,39.70
2023-02-12T00:15:46.377Z,43.40
2023-02-12T00:18:14.368Z,40.90
2023-02-12T00:20:43.673Z,47.20
2023-02-12T00:23:12.430Z,43.50
2023-02-12T00:25:42.932Z,44.37
2023-02-12T00:28:10.927Z,44.00
2023-02-12T00:30:38.969Z,45.93
2023-02-12T00:33:06.959Z,39.17
2023-02-12T00:35:34.936Z,36.70
2023-02-12T00:38:04.233Z,36.70
2023-02-12T00:40:32.233Z,40.30
2023-02-12T00:43:00.213Z,41.37
2023-02-12T00:45:28.203Z,40.53
2023-02-12T00:47:56.172Z,39.57
2023-02-12T00:50:24.133Z,43.37
2023-02-12T00:52:52.064Z,40.83
2023-02-12T00:55:21.444Z,40.20
2023-02-12T00:57:49.438Z,41.60
2023-02-12T01:00:17.949Z,46.47
2023-02-12T01:02:45.982Z,39.80
2023-02-12T01:05:14.058Z,43.83
2023-02-12T01:07:42.067Z,45.27
2023-02-12T01:10:10.529Z,48.90
2023-02-12T01:12:39.886Z,47.07
2023-02-12T01:15:10.418Z,50.90
2023-02-12T01:17:38.472Z,51.63
2023-02-12T01:20:08.240Z,47.67
2023-02-12T01:22:36.399Z,47.80
2023-02-12T01:25:04.387Z,50.27
2023-02-12T01:27:32.612Z,45.43
2023-02-12T01:30:01.977Z,42.60
2023-02-12T01:32:29.977Z,44.20
2023-02-12T01:34:57.981Z,44.30
2023-02-12T01:37:25.969Z,42.97
2023-02-12T01:39:54.014Z,47.77
2023-02-12T01:42:22.107Z,37.53
2023-02-12T01:45:41.113Z,36.70
2023-02-12T01:48:09.275Z,39.43
2023-02-12T01:50:37.321Z,37.37
2023-02-12T01:53:05.414Z,36.93
2023-02-12T01:55:33.404Z,37.17
2023-02-12T01:58:01.457Z,41.53
2023-02-12T02:00:30.774Z,35.93
2023-02-12T02:03:01.292Z,35.80
2023-02-12T02:05:38.435Z,40.13
2023-02-12T02:08:06.771Z,36.37
2023-02-12T02:10:34.737Z,36.57
2023-02-12T02:13:20.781Z,34.60
2023-02-12T02:15:55.897Z,35.83
2023-02-12T02:18:30.332Z,36.07
2023-02-12T02:21:30.178Z,40.90
2023-02-12T02:24:21.813Z,37.43
2023-02-12T02:27:19.693Z,38.57
2023-02-12T02:30:24.950Z,40.47
2023-02-12T02:33:02.931Z,38.43
2023-02-12T02:35:40.993Z,41.37
2023-02-12T02:38:21.845Z,38.27
2023-02-12T02:40:56.668Z,43.93
2023-02-12T02:43:30.583Z,48.00
2023-02-12T02:46:06.726Z,37.40
2023-02-12T02:48:38.786Z,38.10
2023-02-12T02:51:10.881Z,44.80
2023-02-12T02:53:43.410Z,36.53
2023-02-12T02:56:16.137Z,40.93
2023-02-12T02:58:47.550Z,43.03
2023-02-12T03:01:21.194Z,35.53
2023-02-12T03:03:53.225Z,38.80
2023-02-12T03:06:28.627Z,35.47
2023-02-12T03:08:59.857Z,31.97
2023-02-12T03:11:30.958Z,30.50
2023-02-12T03:14:03.779Z,34.33
2023-02-12T03:16:35.934Z,33.57
2023-02-12T03:19:10.220Z,31.90
2023-02-12T03:21:43.244Z,32.87
2023-02-12T03:24:17.540Z,31.30
2023-02-12T03:26:49.871Z,34.10
2023-02-12T03:29:17.904Z,27.73
2023-02-12T03:32:04.605Z,30.90
2023-02-12T03:34:42.008Z,30.47
2023-02-12T03:37:12.663Z,29.57
2023-02-12T03:39:51.602Z,32.20
2023-02-12T03:42:25.518Z,35.80
2023-02-12T03:44:57.887Z,37.47
2023-02-12T03:47:38.765Z,30.03
2023-02-12T03:50:11.744Z,30.17
2023-02-12T03:52:39.941Z,36.00
2023-02-12T03:55:08.565Z,27.57
2023-02-12T03:57:42.722Z,27.40
2023-02-12T04:00:14.069Z,31.50
2023-02-12T04:02:43.961Z,33.77
2023-02-12T04:05:19.633Z,31.73
2023-02-12T04:07:47.973Z,31.50
2023-02-12T04:10:17.131Z,34.57
2023-02-12T04:12:53.366Z,36.30
2023-02-12T04:15:53.736Z,31.90
2023-02-12T04:18:30.765Z,34.03
2023-02-12T04:21:05.775Z,29.90
2023-02-12T04:23:43.553Z,30.00
2023-02-12T04:26:18.491Z,33.07
2023-02-12T04:28:58.100Z,29.30
2023-02-12T04:31:32.448Z,30.90
2023-02-12T04:34:10.803Z,31.73
2023-02-12T04:36:46.449Z,30.47
2023-02-12T04:39:20.167Z,35.83
2023-02-12T04:41:48.182Z,27.23
2023-02-12T04:44:18.550Z,32.47
2023-02-12T04:46:46.567Z,34.17
2023-02-12T04:49:18.392Z,30.63
2023-02-12T04:51:46.922Z,30.77
2023-02-12T04:54:15.124Z,25.13
2023-02-12T04:56:43.751Z,29.20
2023-02-12T04:59:12.054Z,31.07
2023-02-12T05:01:41.088Z,31.60
2023-02-12T05:04:11.590Z,35.47
2023-02-12T05:06:41.536Z,31.87
2023-02-12T05:09:11.514Z,33.30
2023-02-12T05:11:39.542Z,31.57
2023-02-12T05:14:07.493Z,29.47
2023-02-12T05:16:35.623Z,29.53
2023-02-12T05:19:03.584Z,28.63
2023-02-12T05:21:31.558Z,32.40
2023-02-12T05:24:02.640Z,32.63
2023-02-12T05:26:30.731Z,35.70
2023-02-12T05:28:58.715Z,30.87
2023-02-12T05:31:26.907Z,33.40
2023-02-12T05:33:54.977Z,32.30
2023-02-12T05:36:24.905Z,35.13
2023-02-12T05:38:54.204Z,30.43
2023-02-12T05:41:25.341Z,32.20
2023-02-12T05:43:54.194Z,32.13
2023-02-12T05:46:23.192Z,33.37
2023-02-12T05:48:51.559Z,35.53
2023-02-12T05:51:22.158Z,35.93
2023-02-12T05:53:51.054Z,37.13
2023-02-12T05:56:21.522Z,32.03
2023-02-12T05:58:55.630Z,38.23
2023-02-12T06:01:26.578Z,33.47
2023-02-12T06:03:54.605Z,37.10
2023-02-12T06:06:22.868Z,34.73
2023-02-12T06:08:50.904Z,35.63
2023-02-12T06:11:19.454Z,37.47
2023-02-12T06:13:47.911Z,36.70
2023-02-12T06:16:23.208Z,36.77
2023-02-12T06:18:51.498Z,35.77
2023-02-12T06:21:21.067Z,25.57
2023-02-12T06:23:49.299Z,32.43
2023-02-12T06:26:17.395Z,35.13
2023-02-12T06:28:45.780Z,26.30
2023-02-12T06:31:23.932Z,25.57
2023-02-12T06:33:52.796Z,25.90
2023-02-12T06:36:21.082Z,24.53
2023-02-12T06:38:49.753Z,29.53
2023-02-12T06:41:18.145Z,24.87
2023-02-12T06:43:46.353Z,26.07
2023-02-12T06:46:15.352Z,31.13
2023-02-12T06:48:44.725Z,24.17
2023-02-12T06:51:18.651Z,20.30
2023-02-12T06:53:46.923Z,22.47
2023-02-12T06:56:15.389Z,22.20
2023-02-12T06:58:44.864Z,23.73
2023-02-12T07:01:15.437Z,18.83
2023-02-12T07:03:46.035Z,19.27
2023-02-12T07:06:14.142Z,20.17
2023-02-12T07:08:42.440Z,20.53
2023-02-12T07:11:10.772Z,22.20
2023-02-12T07:13:38.759Z,22.83
2023-02-12T07:16:08.291Z,19.43
2023-02-12T07:18:36.554Z,18.03
2023-02-12T07:21:07.383Z,21.97
2023-02-12T07:23:36.421Z,16.67
2023-02-12T07:26:06.912Z,18.73
2023-02-12T07:28:35.710Z,19.27
2023-02-12T07:31:09.665Z,20.07
2023-02-12T07:33:38.465Z,17.10
2023-02-12T07:36:12.459Z,19.33
2023-02-12T07:38:41.166Z,19.37
2023-02-12T07:41:12.196Z,19.73
2023-02-12T07:43:40.794Z,17.60
2023-02-12T07:46:10.788Z,20.27
2023-02-12T07:48:38.894Z,13.33
2023-02-12T07:51:10.573Z,18.70
2023-02-12T07:53:39.473Z,16.83
2023-02-12T07:56:09.605Z,16.07
2023-02-12T07:58:38.258Z,16.60
2023-02-12T08:01:14.844Z,17.37
2023-02-12T08:03:43.244Z,15.77
2023-02-12T08:06:15.296Z,18.10
2023-02-12T08:08:43.389Z,17.93
2023-02-12T08:11:13.052Z,18.47
2023-02-12T08:13:41.501Z,18.40
2023-02-12T08:16:12.296Z,18.37
2023-02-12T08:18:40.655Z,14.70
2023-02-12T08:21:10.539Z,13.47
2023-02-12T08:23:40.314Z,11.90
2023-02-12T08:26:10.395Z,15.13
2023-02-12T08:28:39.840Z,12.57
2023-02-12T08:31:10.634Z,15.17
2023-02-12T08:33:38.639Z,16.93
2023-02-12T08:36:09.636Z,12.50
2023-02-12T08:38:39.728Z,12.93
2023-02-12T08:41:09.950Z,10.03
2023-02-12T08:43:39.057Z,14.03
2023-02-12T08:46:08.382Z,11.83
2023-02-12T08:48:36.640Z,12.57
2023-02-12T08:51:06.694Z,9.13
2023-02-12T08:53:34.845Z,10.60
2023-02-12T08:56:04.450Z,12.03
2023-02-12T08:58:32.552Z,12.83
2023-02-12T09:01:00.673Z,9.90
2023-02-12T09:03:29.183Z,10.43
2023-02-12T09:05:57.811Z,11.40
2023-02-12T09:08:26.010Z,16.20
2023-02-12T09:10:54.025Z,15.03
2023-02-12T09:13:26.023Z,17.13
2023-02-12T09:15:53.988Z,20.03
2023-02-12T09:18:21.939Z,13.90
2023-02-12T09:20:50.033Z,16.27
2023-02-12T09:23:17.987Z,13.00
2023-02-12T09:25:46.961Z,13.30
2023-02-12T09:28:15.760Z,15.77
2023-02-12T09:30:45.191Z,16.20
2023-02-12T09:33:13.398Z,18.97
2023-02-12T09:35:41.876Z,18.13
2023-02-12T09:38:10.142Z,17.47
2023-02-12T09:40:47.085Z,15.47
2023-02-12T09:43:20.922Z,17.63
2023-02-12T09:45:56.817Z,13.33
2023-02-12T09:48:44.077Z,12.33
2023-02-12T09:51:12.946Z,18.43
2023-02-12T09:53:45.876Z,14.60
2023-02-12T09:56:19.521Z,13.03
2023-02-12T09:58:51.244Z,18.03
2023-02-12T10:01:22.230Z,18.00
2023-02-12T10:03:51.721Z,26.93
2023-02-12T10:06:22.389Z,17.83
2023-02-12T10:09:02.205Z,16.77
2023-02-12T10:11:53.182Z,17.73
2023-02-12T10:14:57.514Z,16.90
2023-02-12T10:17:36.990Z,13.33
2023-02-12T10:20:34.633Z,15.40
2023-02-12T10:23:17.490Z,18.33
2023-02-12T10:25:52.240Z,16.23
2023-02-12T10:28:26.285Z,19.47
2023-02-12T10:30:57.781Z,19.30
2023-02-12T10:33:32.606Z,47.97
2023-02-12T10:36:05.043Z,33.87
2023-02-12T10:38:37.473Z,22.00
2023-02-12T10:41:05.724Z,20.97
2023-02-12T10:43:33.929Z,15.33
2023-02-12T10:46:01.951Z,18.83
2023-02-12T10:48:38.018Z,15.60
2023-02-12T10:51:21.764Z,14.50
2023-02-12T10:53:49.786Z,17.03
2023-02-12T10:56:20.176Z,18.43
2023-02-12T10:58:57.365Z,16.83
2023-02-12T11:01:28.430Z,17.10
2023-02-12T11:04:01.036Z,14.83
2023-02-12T11:06:32.317Z,16.53
2023-02-12T11:09:00.687Z,15.40
2023-02-12T11:11:31.610Z,18.87
2023-02-12T11:14:04.027Z,17.27
2023-02-12T11:16:35.108Z,19.03
2023-02-12T11:19:06.780Z,19.87
2023-02-12T11:21:36.458Z,19.20
2023-02-12T11:24:30.473Z,22.10
2023-02-12T11:27:22.529Z,20.67
2023-02-12T11:30:12.370Z,20.83
2023-02-12T11:32:40.700Z,21.57
2023-02-12T11:35:15.249Z,24.63
2023-02-12T11:37:45.471Z,31.07
2023-02-12T11:40:20.208Z,28.00
2023-02-12T11:42:52.650Z,20.00
2023-02-12T11:45:23.330Z,18.83
2023-02-12T11:47:52.722Z,14.63
2023-02-12T11:50:28.208Z,15.37
2023-02-12T11:53:00.454Z,19.03
2023-02-12T11:55:33.517Z,17.63
2023-02-12T11:58:04.823Z,21.37
2023-02-12T12:00:38.330Z,21.27
2023-02-12T12:03:14.704Z,20.03
2023-02-12T12:05:49.208Z,21.13
2023-02-12T12:08:22.631Z,18.03
2023-02-12T12:10:55.059Z,20.00
2023-02-12T12:13:28.614Z,22.23
2023-02-12T12:16:23.575Z,23.07
2023-02-12T12:19:15.390Z,23.10
2023-02-12T12:21:55.522Z,42.70
2023-02-12T12:24:30.051Z,33.30
2023-02-12T12:27:14.176Z,23.73
2023-02-12T12:29:52.361Z,16.07
2023-02-12T12:32:24.246Z,20.97
2023-02-12T12:34:52.197Z,19.87
2023-02-12T12:37:39.159Z,23.33
2023-02-12T12:40:23.167Z,18.17
2023-02-12T12:43:15.274Z,21.13
2023-02-12T12:46:12.733Z,23.47
2023-02-12T12:49:00.216Z,26.17
2023-02-12T12:51:45.799Z,22.90
2023-02-12T12:54:35.038Z,20.03
2023-02-12T12:57:11.542Z,16.37
2023-02-12T13:00:02.329Z,17.13
2023-02-12T13:03:05.782Z,17.43
2023-02-12T13:06:03.431Z,15.03
2023-02-12T13:08:49.874Z,15.93
2023-02-12T13:11:35.225Z,15.87
2023-02-12T13:14:15.847Z,16.50
2023-02-12T13:16:50.101Z,14.57
2023-02-12T13:19:28.489Z,19.83
2023-02-12T13:22:04.006Z,21.73
2023-02-12T13:24:39.187Z,19.03
2023-02-12T13:27:16.115Z,18.50
2023-02-12T13:29:49.215Z,27.93
2023-02-12T13:32:24.392Z,17.63
2023-02-12T13:34:54.557Z,27.37
2023-02-12T13:37:39.030Z,22.27
2023-02-12T13:40:09.479Z,15.10
2023-02-12T13:42:46.244Z,25.60
2023-02-12T13:45:26.396Z,19.20
2023-02-12T13:48:07.377Z,17.83
2023-02-12T13:50:45.836Z,17.60
2023-02-12T13:53:23.745Z,25.80
2023-02-12T13:56:03.883Z,30.67
2023-02-12T13:58:49.746Z,32.30
2023-02-12T14:01:46.504Z,35.10
2023-02-12T14:04:29.609Z,33.83
2023-02-12T14:07:01.455Z,23.30
2023-02-12T14:09:39.060Z,30.90
2023-02-12T14:12:09.517Z,28.23
2023-02-12T14:14:42.452Z,33.17
2023-02-12T14:17:43.268Z,34.43
2023-02-12T14:20:24.852Z,33.53
2023-02-12T14:23:24.352Z,48.50
2023-02-12T14:26:01.212Z,37.83
2023-02-12T14:28:35.392Z,34.87
2023-02-12T14:31:32.574Z,47.60
2023-02-12T14:34:50.046Z,38.53
2023-02-12T14:37:37.765Z,42.70
2023-02-12T14:40:44.455Z,37.70
2023-02-12T14:43:30.968Z,40.13
2023-02-12T14:46:20.346Z,33.70
2023-02-12T14:48:54.250Z,28.27
2023-02-12T14:51:28.533Z,31.30
2023-02-12T14:53:57.352Z,28.67
2023-02-12T14:56:25.608Z,22.93
2023-02-12T14:58:56.888Z,28.23
2023-02-12T15:01:33.879Z,35.40
2023-02-12T15:04:13.090Z,42.33
2023-02-12T15:06:49.944Z,40.20
2023-02-12T15:09:23.015Z,52.23
2023-02-12T15:11:59.864Z,36.87
2023-02-12T15:14:32.164Z,33.17
2023-02-12T15:17:08.463Z,25.53
2023-02-12T15:19:44.625Z,30.03
2023-02-12T15:22:25.917Z,31.60
2023-02-12T15:24:54.089Z,36.23
2023-02-12T15:27:22.756Z,26.30
2023-02-12T15:29:53.536Z,27.83
2023-02-12T15:32:26.441Z,50.23
2023-02-12T15:34:56.425Z,31.83
2023-02-12T15:37:27.473Z,32.30
2023-02-12T15:39:58.206Z,26.80
2023-02-12T15:42:28.798Z,35.30
2023-02-12T15:45:18.523Z,48.13
2023-02-12T15:47:55.800Z,55.33
2023-02-12T15:50:25.398Z,51.13
2023-02-12T15:52:53.724Z,37.63
2023-02-12T15:55:25.193Z,37.97
2023-02-12T15:57:54.799Z,35.87
2023-02-12T16:00:36.589Z,33.77
2023-02-12T16:03:04.602Z,31.77
2023-02-12T16:05:35.433Z,32.17
2023-02-12T16:08:04.052Z,35.50
2023-02-12T16:10:32.126Z,37.63
2023-02-12T16:13:00.306Z,41.77
2023-02-12T16:15:31.658Z,40.47
2023-02-12T16:18:04.100Z,37.00
2023-02-12T16:20:33.818Z,43.43
2023-02-12T16:23:07.047Z,43.40
2023-02-12T16:25:35.271Z,44.03
2023-02-12T16:28:05.418Z,60.40
2023-02-12T16:30:34.936Z,63.50
2023-02-12T16:33:03.627Z,64.27
2023-02-12T16:35:35.497Z,63.23
2023-02-12T16:38:25.072Z,66.60
2023-02-12T16:41:23.500Z,68.37
2023-02-12T16:44:12.421Z,67.33
2023-02-12T16:46:47.538Z,62.37
2023-02-12T16:49:18.031Z,72.77
2023-02-12T16:51:48.761Z,69.73
2023-02-12T16:54:31.308Z,73.50
2023-02-12T16:56:59.928Z,58.07
2023-02-12T16:59:28.454Z,61.07
2023-02-12T17:02:01.649Z,54.57
2023-02-12T17:04:29.880Z,54.37
2023-02-12T17:06:59.726Z,54.33
2023-02-12T17:09:29.683Z,51.40
2023-02-12T17:11:57.967Z,49.97
2023-02-12T17:14:26.091Z,53.57
2023-02-12T17:16:54.080Z,51.37
2023-02-12T17:19:22.896Z,48.07
2023-02-12T17:21:51.968Z,53.53
2023-02-12T17:24:24.182Z,54.53
2023-02-12T17:26:52.778Z,55.20
2023-02-12T17:29:22.612Z,59.00
2023-02-12T17:31:53.653Z,60.23
2023-02-12T17:34:21.760Z,57.03
2023-02-12T17:36:50.260Z,67.17
2023-02-12T17:39:18.826Z,69.93
2023-02-12T17:41:48.601Z,69.50
2023-02-12T17:44:16.882Z,71.63
2023-02-12T17:46:45.346Z,77.30
2023-02-12T17:49:13.779Z,80.87
2023-02-12T17:51:42.733Z,88.93
2023-02-12T17:54:10.838Z,77.00
2023-02-12T17:56:38.820Z,85.00
2023-02-12T17:59:08.141Z,85.23
2023-02-12T18:01:36.149Z,87.53
2023-02-12T18:04:04.193Z,77.33
2023-02-12T18:06:32.606Z,76.87
2023-02-12T18:09:01.740Z,86.60
2023-02-12T18:11:30.112Z,75.17
2023-02-12T18:13:58.926Z,81.70
2023-02-12T18:16:31.401Z,77.20
2023-02-12T18:19:00.932Z,89.77
2023-02-12T18:21:29.416Z,91.67
2023-02-12T18:23:57.835Z,87.80
2023-02-12T18:26:25.812Z,82.13
2023-02-12T18:28:54.376Z,82.30
2023-02-12T18:31:22.476Z,84.37
2023-02-12T18:33:51.980Z,84.23
2023-02-12T18:36:21.553Z,96.80
2023-02-12T18:38:51.405Z,96.07
2023-02-12T18:41:21.405Z,102.03
2023-02-12T18:43:50.112Z,134.13
2023-02-12T18:46:21.124Z,127.00
2023-02-12T18:48:51.032Z,123.33
2023-02-12T18:51:22.254Z,115.27
2023-02-12T18:53:56.047Z,117.23
2023-02-12T18:56:24.824Z,112.93
2023-02-12T18:58:57.584Z,108.47
2023-02-12T19:01:26.357Z,93.57
2023-02-12T19:03:58.957Z,87.50
2023-02-12T19:06:27.210Z,80.53
2023-02-12T19:08:56.049Z,100.13
2023-02-12T19:11:24.243Z,114.43
2023-02-12T19:13:52.243Z,125.70
2023-02-12T19:16:21.849Z,132.80
2023-02-12T19:18:50.175Z,172.23
2023-02-12T19:21:19.814Z,192.50
2023-02-12T19:23:47.856Z,213.77
2023-02-12T19:26:17.490Z,211.60
2023-02-12T19:28:45.559Z,183.30
2023-02-12T19:31:15.837Z,176.77
2023-02-12T19:33:44.885Z,139.03
2023-02-12T19:36:15.067Z,143.30
2023-02-12T19:38:44.830Z,131.57
2023-02-12T19:41:15.277Z,114.03
2023-02-12T19:43:43.822Z,116.30
2023-02-12T19:46:14.004Z,104.20
2023-02-12T19:48:42.171Z,96.27
2023-02-12T19:51:14.015Z,90.67
2023-02-12T19:53:42.463Z,106.80
2023-02-12T19:56:11.929Z,108.53
2023-02-12T19:58:40.619Z,117.03
2023-02-12T20:01:10.617Z,110.60
2023-02-12T20:03:39.359Z,109.80
2023-02-12T20:06:10.745Z,123.30
2023-02-12T20:08:39.750Z,110.83
2023-02-12T20:11:08.707Z,96.17
2023-02-12T20:13:38.196Z,99.97
2023-02-12T20:16:07.155Z,115.17
2023-02-12T20:18:35.913Z,104.73
2023-02-12T20:21:10.357Z,110.80
2023-02-12T20:23:38.558Z,135.33
2023-02-12T20:26:07.521Z,125.87
2023-02-12T20:28:38.002Z,119.03
2023-02-12T20:31:11.003Z,117.13
2023-02-12T20:33:39.673Z,126.43
2023-02-12T20:36:09.002Z,139.13
2023-02-12T20:38:38.369Z,147.77
2023-02-12T20:41:08.367Z,139.53
2023-02-12T20:43:38.796Z,163.23
2023-02-12T20:46:07.818Z,201.57
2023-02-12T20:48:36.728Z,196.47
2023-02-12T20:51:05.942Z,177.47
2023-02-12T20:53:35.132Z,153.20
2023-02-12T20:56:03.782Z,141.17
2023-02-12T20:58:31.920Z,135.93
2023-02-12T21:01:07.245Z,119.00
2023-02-12T21:03:36.030Z,116.23
2023-02-12T21:06:04.241Z,109.73
2023-02-12T21:08:32.858Z,110.30
2023-02-12T21:11:01.770Z,105.13
2023-02-12T21:13:29.915Z,102.33
2023-02-12T21:16:11.051Z,97.03
2023-02-12T21:18:39.474Z,110.23
2023-02-12T21:21:09.386Z,124.57
2023-02-12T21:23:38.413Z,135.53
2023-02-12T21:26:08.370Z,146.17
2023-02-12T21:28:37.274Z,164.17
2023-02-12T21:31:12.008Z,171.77
2023-02-12T21:33:40.986Z,158.23
2023-02-12T21:36:10.473Z,132.63
2023-02-12T21:38:40.282Z,124.27
2023-02-12T21:41:10.486Z,128.23
2023-02-12T21:43:39.103Z,124.77
2023-02-12T21:46:07.866Z,95.97
2023-02-12T21:48:39.111Z,101.90
2023-02-12T21:51:07.909Z,97.93
2023-02-12T21:53:35.918Z,96.57
2023-02-12T21:56:04.563Z,98.03
2023-02-12T21:58:33.107Z,103.63
2023-02-12T22:01:07.463Z,97.40
2023-02-12T22:03:37.090Z,96.47
2023-02-12T22:06:07.428Z,88.37
2023-02-12T22:08:36.001Z,90.47
2023-02-12T22:11:04.852Z,85.90
2023-02-12T22:13:33.433Z,91.07
2023-02-12T22:16:09.250Z,91.80
2023-02-12T22:18:39.232Z,95.73
2023-02-12T22:21:11.279Z,94.17
2023-02-12T22:23:41.686Z,92.03
2023-02-12T22:26:11.760Z,85.63
2023-02-12T22:28:41.626Z,96.00
2023-02-12T22:31:11.186Z,81.60
2023-02-12T22:33:41.051Z,83.10
2023-02-12T22:36:10.820Z,90.23
2023-02-12T22:38:40.432Z,92.30
2023-02-12T22:41:09.741Z,100.83
2023-02-12T22:43:40.228Z,95.40
2023-02-12T22:46:09.692Z,101.17
2023-02-12T22:48:38.004Z,102.27
2023-02-12T22:51:11.895Z,100.80
2023-02-12T22:53:40.289Z,98.00
2023-02-12T22:56:09.700Z,97.33
2023-02-12T22:58:38.628Z,91.90
2023-02-12T23:01:07.656Z,92.93
2023-02-12T23:03:37.542Z,97.93
2023-02-12T23:06:07.156Z,96.57
2023-02-12T23:08:37.035Z,92.73
2023-02-12T23:11:07.187Z,91.83
2023-02-12T23:13:36.995Z,92.97
2023-02-12T23:16:05.365Z,96.90
2023-02-12T23:18:33.618Z,95.77
2023-02-12T23:21:02.334Z,86.87
2023-02-12T23:23:30.282Z,91.13
2023-02-12T23:25:59.646Z,92.27
2023-02-12T23:28:27.733Z,85.60
2023-02-12T23:30:55.822Z,85.43
2023-02-12T23:33:24.118Z,83.73
2023-02-12T23:35:52.109Z,85.10
2023-02-12T23:38:20.163Z,88.70
2023-02-12T23:40:48.473Z,83.83
2023-02-12T23:43:17.815Z,91.00
2023-02-12T23:45:46.233Z,87.13
2023-02-12T23:48:15.116Z,84.57
2023-02-12T23:50:43.410Z,83.77
2023-02-12T23:53:11.420Z,83.17
2023-02-12T23:55:40.542Z,89.10
2023-02-12T23:58:08.896Z,90.10
